sensor_id;sensor_type;location;lat;lon;timestamp;P1;durP1;ratioP1;P2;durP2;ratioP2
30505;SDS011;17292;51.600;4.994;2023-04-08T00:01:52;12.50;;;3.35;;
30505;SDS011;17292;51.600;4.994;2023-04-08T00:04:18;15.15;;;3.47;;
30505;SDS011;17292;51.600;4.994;2023-04-08T00:06:45;14.07;;;3.47;;
30505;SDS011;17292;51.600;4.994;2023-04-08T00:09:11;16.02;;;3.92;;
30505;SDS011;17292;51.600;4.994;2023-04-08T00:11:37;13.07;;;3.38;;
30505;SDS011;17292;51.600;4.994;2023-04-08T00:14:03;12.45;;;3.30;;
30505;SDS011;17292;51.600;4.994;2023-04-08T00:16:30;7.63;;;2.97;;
30505;SDS011;17292;51.600;4.994;2023-04-08T00:18:56;9.98;;;3.92;;
30505;SDS011;17292;51.600;4.994;2023-04-08T00:21:22;10.20;;;3.47;;
30505;SDS011;17292;51.600;4.994;2023-04-08T00:23:48;9.85;;;3.70;;
30505;SDS011;17292;51.600;4.994;2023-04-08T00:26:14;7.35;;;3.40;;
30505;SDS011;17292;51.600;4.994;2023-04-08T00:28:40;10.73;;;3.45;;
30505;SDS011;17292;51.600;4.994;2023-04-08T00:31:07;13.00;;;3.67;;
30505;SDS011;17292;51.600;4.994;2023-04-08T00:33:33;11.07;;;3.13;;
30505;SDS011;17292;51.600;4.994;2023-04-08T00:36:00;9.25;;;3.17;;
30505;SDS011;17292;51.600;4.994;2023-04-08T00:38:26;8.75;;;3.20;;
30505;SDS011;17292;51.600;4.994;2023-04-08T00:40:52;5.95;;;3.15;;
30505;SDS011;17292;51.600;4.994;2023-04-08T00:43:18;11.00;;;3.55;;
30505;SDS011;17292;51.600;4.994;2023-04-08T00:45:48;8.18;;;3.13;;
30505;SDS011;17292;51.600;4.994;2023-04-08T00:48:14;10.02;;;3.60;;
30505;SDS011;17292;51.600;4.994;2023-04-08T00:50:41;12.38;;;3.45;;
30505;SDS011;17292;51.600;4.994;2023-04-08T00:53:08;11.98;;;3.13;;
30505;SDS011;17292;51.600;4.994;2023-04-08T00:55:34;12.20;;;3.47;;
30505;SDS011;17292;51.600;4.994;2023-04-08T00:58:00;14.32;;;3.20;;
30505;SDS011;17292;51.600;4.994;2023-04-08T01:00:28;11.30;;;3.78;;
30505;SDS011;17292;51.600;4.994;2023-04-08T01:08:25;10.13;;;2.97;;
30505;SDS011;17292;51.600;4.994;2023-04-08T01:10:52;9.80;;;3.15;;
30505;SDS011;17292;51.600;4.994;2023-04-08T01:13:20;8.63;;;3.13;;
30505;SDS011;17292;51.600;4.994;2023-04-08T01:15:48;8.68;;;2.97;;
30505;SDS011;17292;51.600;4.994;2023-04-08T01:18:15;12.05;;;3.80;;
30505;SDS011;17292;51.600;4.994;2023-04-08T01:20:42;17.52;;;4.15;;
30505;SDS011;17292;51.600;4.994;2023-04-08T01:25:35;14.52;;;3.50;;
30505;SDS011;17292;51.600;4.994;2023-04-08T01:28:12;9.23;;;3.22;;
30505;SDS011;17292;51.600;4.994;2023-04-08T01:30:40;9.27;;;3.60;;
30505;SDS011;17292;51.600;4.994;2023-04-08T01:33:09;13.57;;;3.47;;
30505;SDS011;17292;51.600;4.994;2023-04-08T01:35:37;12.45;;;3.55;;
30505;SDS011;17292;51.600;4.994;2023-04-08T01:38:03;10.15;;;3.58;;
30505;SDS011;17292;51.600;4.994;2023-04-08T01:40:32;9.75;;;3.10;;
30505;SDS011;17292;51.600;4.994;2023-04-08T01:43:00;8.50;;;3.30;;
30505;SDS011;17292;51.600;4.994;2023-04-08T01:45:27;12.73;;;4.20;;
30505;SDS011;17292;51.600;4.994;2023-04-08T01:47:53;10.55;;;2.80;;
30505;SDS011;17292;51.600;4.994;2023-04-08T01:50:20;11.52;;;3.22;;
30505;SDS011;17292;51.600;4.994;2023-04-08T01:52:47;9.52;;;3.10;;
30505;SDS011;17292;51.600;4.994;2023-04-08T01:55:14;10.02;;;2.90;;
30505;SDS011;17292;51.600;4.994;2023-04-08T01:57:41;11.50;;;3.28;;
30505;SDS011;17292;51.600;4.994;2023-04-08T02:00:10;11.57;;;3.53;;
30505;SDS011;17292;51.600;4.994;2023-04-08T02:02:37;7.30;;;2.75;;
30505;SDS011;17292;51.600;4.994;2023-04-08T02:05:05;11.38;;;3.40;;
30505;SDS011;17292;51.600;4.994;2023-04-08T02:07:31;7.55;;;3.42;;
30505;SDS011;17292;51.600;4.994;2023-04-08T02:09:58;10.13;;;3.40;;
30505;SDS011;17292;51.600;4.994;2023-04-08T02:12:24;13.05;;;3.75;;
30505;SDS011;17292;51.600;4.994;2023-04-08T02:14:52;8.65;;;3.13;;
30505;SDS011;17292;51.600;4.994;2023-04-08T02:17:29;9.32;;;3.40;;
30505;SDS011;17292;51.600;4.994;2023-04-08T02:19:59;6.85;;;3.03;;
30505;SDS011;17292;51.600;4.994;2023-04-08T02:22:35;9.82;;;3.05;;
30505;SDS011;17292;51.600;4.994;2023-04-08T02:25:04;9.85;;;2.95;;
30505;SDS011;17292;51.600;4.994;2023-04-08T02:27:33;12.02;;;2.90;;
30505;SDS011;17292;51.600;4.994;2023-04-08T02:30:01;14.18;;;3.45;;
30505;SDS011;17292;51.600;4.994;2023-04-08T02:32:29;10.43;;;3.53;;
30505;SDS011;17292;51.600;4.994;2023-04-08T02:34:55;6.78;;;2.80;;
30505;SDS011;17292;51.600;4.994;2023-04-08T02:37:22;9.93;;;3.03;;
30505;SDS011;17292;51.600;4.994;2023-04-08T02:39:48;6.80;;;3.22;;
30505;SDS011;17292;51.600;4.994;2023-04-08T02:42:15;7.60;;;2.80;;
30505;SDS011;17292;51.600;4.994;2023-04-08T02:44:41;8.00;;;2.88;;
30505;SDS011;17292;51.600;4.994;2023-04-08T02:47:07;11.13;;;2.90;;
30505;SDS011;17292;51.600;4.994;2023-04-08T02:49:33;12.10;;;3.65;;
30505;SDS011;17292;51.600;4.994;2023-04-08T02:51:59;8.25;;;2.90;;
30505;SDS011;17292;51.600;4.994;2023-04-08T02:54:25;10.68;;;3.60;;
30505;SDS011;17292;51.600;4.994;2023-04-08T02:56:52;7.45;;;3.15;;
30505;SDS011;17292;51.600;4.994;2023-04-08T02:59:18;7.95;;;2.88;;
30505;SDS011;17292;51.600;4.994;2023-04-08T03:01:44;8.20;;;3.72;;
30505;SDS011;17292;51.600;4.994;2023-04-08T03:04:10;7.75;;;2.80;;
30505;SDS011;17292;51.600;4.994;2023-04-08T03:06:36;8.75;;;2.88;;
30505;SDS011;17292;51.600;4.994;2023-04-08T03:09:02;5.25;;;2.35;;
30505;SDS011;17292;51.600;4.994;2023-04-08T03:11:30;7.43;;;2.70;;
30505;SDS011;17292;51.600;4.994;2023-04-08T03:13:56;9.07;;;3.00;;
30505;SDS011;17292;51.600;4.994;2023-04-08T03:16:22;11.02;;;3.08;;
30505;SDS011;17292;51.600;4.994;2023-04-08T03:18:48;9.60;;;3.10;;
30505;SDS011;17292;51.600;4.994;2023-04-08T03:21:17;10.80;;;3.45;;
30505;SDS011;17292;51.600;4.994;2023-04-08T03:23:43;9.45;;;2.80;;
30505;SDS011;17292;51.600;4.994;2023-04-08T03:26:10;7.10;;;2.30;;
30505;SDS011;17292;51.600;4.994;2023-04-08T03:28:36;9.50;;;3.33;;
30505;SDS011;17292;51.600;4.994;2023-04-08T03:31:03;10.02;;;3.13;;
30505;SDS011;17292;51.600;4.994;2023-04-08T03:33:29;12.27;;;3.13;;
30505;SDS011;17292;51.600;4.994;2023-04-08T03:35:56;11.40;;;3.42;;
30505;SDS011;17292;51.600;4.994;2023-04-08T03:38:22;7.63;;;2.90;;
30505;SDS011;17292;51.600;4.994;2023-04-08T03:40:48;9.38;;;2.80;;
30505;SDS011;17292;51.600;4.994;2023-04-08T03:43:14;11.35;;;3.00;;
30505;SDS011;17292;51.600;4.994;2023-04-08T03:45:40;9.23;;;2.83;;
30505;SDS011;17292;51.600;4.994;2023-04-08T03:48:07;8.95;;;2.88;;
30505;SDS011;17292;51.600;4.994;2023-04-08T03:50:33;8.98;;;3.33;;
30505;SDS011;17292;51.600;4.994;2023-04-08T03:52:59;10.15;;;3.22;;
30505;SDS011;17292;51.600;4.994;2023-04-08T03:55:25;10.07;;;3.33;;
30505;SDS011;17292;51.600;4.994;2023-04-08T03:57:51;11.27;;;3.17;;
30505;SDS011;17292;51.600;4.994;2023-04-08T04:00:17;6.35;;;2.95;;
30505;SDS011;17292;51.600;4.994;2023-04-08T04:02:43;5.95;;;2.72;;
30505;SDS011;17292;51.600;4.994;2023-04-08T04:05:10;4.85;;;2.28;;
30505;SDS011;17292;51.600;4.994;2023-04-08T04:07:36;6.82;;;2.72;;
30505;SDS011;17292;51.600;4.994;2023-04-08T04:10:02;7.40;;;2.83;;
30505;SDS011;17292;51.600;4.994;2023-04-08T04:12:28;9.60;;;3.05;;
30505;SDS011;17292;51.600;4.994;2023-04-08T04:14:54;13.20;;;3.38;;
30505;SDS011;17292;51.600;4.994;2023-04-08T04:17:20;11.23;;;3.78;;
30505;SDS011;17292;51.600;4.994;2023-04-08T04:19:47;6.57;;;2.50;;
30505;SDS011;17292;51.600;4.994;2023-04-08T04:22:13;6.10;;;2.80;;
30505;SDS011;17292;51.600;4.994;2023-04-08T04:24:39;11.40;;;3.20;;
30505;SDS011;17292;51.600;4.994;2023-04-08T04:27:05;5.93;;;2.70;;
30505;SDS011;17292;51.600;4.994;2023-04-08T04:29:31;6.82;;;2.53;;
30505;SDS011;17292;51.600;4.994;2023-04-08T04:31:57;10.38;;;2.45;;
30505;SDS011;17292;51.600;4.994;2023-04-08T04:34:23;8.52;;;2.88;;
30505;SDS011;17292;51.600;4.994;2023-04-08T04:36:50;9.10;;;2.75;;
30505;SDS011;17292;51.600;4.994;2023-04-08T04:39:16;6.35;;;2.35;;
30505;SDS011;17292;51.600;4.994;2023-04-08T04:41:42;8.00;;;2.88;;
30505;SDS011;17292;51.600;4.994;2023-04-08T04:44:08;9.23;;;3.10;;
30505;SDS011;17292;51.600;4.994;2023-04-08T04:46:35;6.85;;;2.90;;
30505;SDS011;17292;51.600;4.994;2023-04-08T04:49:01;9.60;;;3.25;;
30505;SDS011;17292;51.600;4.994;2023-04-08T04:51:29;7.72;;;2.42;;
30505;SDS011;17292;51.600;4.994;2023-04-08T04:53:56;5.75;;;2.72;;
30505;SDS011;17292;51.600;4.994;2023-04-08T04:56:22;6.63;;;2.75;;
30505;SDS011;17292;51.600;4.994;2023-04-08T04:58:50;8.23;;;2.67;;
30505;SDS011;17292;51.600;4.994;2023-04-08T05:01:16;6.57;;;2.45;;
30505;SDS011;17292;51.600;4.994;2023-04-08T05:03:42;4.47;;;2.40;;
30505;SDS011;17292;51.600;4.994;2023-04-08T05:06:08;5.25;;;2.72;;
30505;SDS011;17292;51.600;4.994;2023-04-08T05:08:35;6.82;;;2.78;;
30505;SDS011;17292;51.600;4.994;2023-04-08T05:11:01;9.43;;;3.13;;
30505;SDS011;17292;51.600;4.994;2023-04-08T05:13:28;21.27;;;4.40;;
30505;SDS011;17292;51.600;4.994;2023-04-08T05:15:54;16.65;;;3.90;;
30505;SDS011;17292;51.600;4.994;2023-04-08T05:18:20;12.90;;;3.05;;
30505;SDS011;17292;51.600;4.994;2023-04-08T05:20:46;12.55;;;3.55;;
30505;SDS011;17292;51.600;4.994;2023-04-08T05:23:12;17.17;;;3.40;;
30505;SDS011;17292;51.600;4.994;2023-04-08T05:25:38;16.20;;;3.13;;
30505;SDS011;17292;51.600;4.994;2023-04-08T05:28:05;18.88;;;4.40;;
30505;SDS011;17292;51.600;4.994;2023-04-08T05:30:31;5.65;;;2.80;;
30505;SDS011;17292;51.600;4.994;2023-04-08T05:32:57;7.80;;;3.10;;
30505;SDS011;17292;51.600;4.994;2023-04-08T05:35:23;10.30;;;3.10;;
30505;SDS011;17292;51.600;4.994;2023-04-08T05:37:49;7.93;;;2.95;;
30505;SDS011;17292;51.600;4.994;2023-04-08T05:40:15;5.90;;;2.65;;
30505;SDS011;17292;51.600;4.994;2023-04-08T05:42:41;5.05;;;2.60;;
30505;SDS011;17292;51.600;4.994;2023-04-08T05:45:08;8.40;;;2.80;;
30505;SDS011;17292;51.600;4.994;2023-04-08T05:47:34;19.77;;;3.95;;
30505;SDS011;17292;51.600;4.994;2023-04-08T05:50:00;18.08;;;3.90;;
30505;SDS011;17292;51.600;4.994;2023-04-08T05:52:26;18.80;;;3.60;;
30505;SDS011;17292;51.600;4.994;2023-04-08T05:54:53;17.48;;;4.10;;
30505;SDS011;17292;51.600;4.994;2023-04-08T05:57:19;19.33;;;3.72;;
30505;SDS011;17292;51.600;4.994;2023-04-08T05:59:45;14.65;;;3.65;;
30505;SDS011;17292;51.600;4.994;2023-04-08T06:02:11;16.27;;;2.90;;
30505;SDS011;17292;51.600;4.994;2023-04-08T06:04:37;13.10;;;3.33;;
30505;SDS011;17292;51.600;4.994;2023-04-08T06:07:03;14.02;;;3.30;;
30505;SDS011;17292;51.600;4.994;2023-04-08T06:09:33;13.25;;;3.13;;
30505;SDS011;17292;51.600;4.994;2023-04-08T06:12:00;12.57;;;3.40;;
30505;SDS011;17292;51.600;4.994;2023-04-08T06:14:26;13.77;;;2.97;;
30505;SDS011;17292;51.600;4.994;2023-04-08T06:16:52;12.93;;;2.90;;
30505;SDS011;17292;51.600;4.994;2023-04-08T06:19:21;13.85;;;3.17;;
30505;SDS011;17292;51.600;4.994;2023-04-08T06:21:47;11.75;;;2.95;;
30505;SDS011;17292;51.600;4.994;2023-04-08T06:24:15;10.77;;;2.90;;
30505;SDS011;17292;51.600;4.994;2023-04-08T06:26:41;7.70;;;2.90;;
30505;SDS011;17292;51.600;4.994;2023-04-08T06:29:07;10.88;;;3.03;;
30505;SDS011;17292;51.600;4.994;2023-04-08T06:31:33;20.15;;;3.25;;
30505;SDS011;17292;51.600;4.994;2023-04-08T06:33:59;12.88;;;3.65;;
30505;SDS011;17292;51.600;4.994;2023-04-08T06:36:26;14.75;;;3.17;;
30505;SDS011;17292;51.600;4.994;2023-04-08T06:38:52;18.65;;;3.45;;
30505;SDS011;17292;51.600;4.994;2023-04-08T06:41:19;11.27;;;3.40;;
30505;SDS011;17292;51.600;4.994;2023-04-08T06:43:45;12.27;;;3.22;;
30505;SDS011;17292;51.600;4.994;2023-04-08T06:46:11;12.25;;;2.90;;
30505;SDS011;17292;51.600;4.994;2023-04-08T06:48:37;15.38;;;4.72;;
30505;SDS011;17292;51.600;4.994;2023-04-08T06:51:04;17.98;;;3.63;;
30505;SDS011;17292;51.600;4.994;2023-04-08T06:53:31;12.90;;;3.25;;
30505;SDS011;17292;51.600;4.994;2023-04-08T06:55:58;17.20;;;3.67;;
30505;SDS011;17292;51.600;4.994;2023-04-08T06:58:24;15.45;;;4.00;;
30505;SDS011;17292;51.600;4.994;2023-04-08T07:00:52;10.15;;;3.63;;
30505;SDS011;17292;51.600;4.994;2023-04-08T07:03:19;12.07;;;3.13;;
30505;SDS011;17292;51.600;4.994;2023-04-08T07:05:46;11.48;;;3.17;;
30505;SDS011;17292;51.600;4.994;2023-04-08T07:08:12;10.43;;;3.42;;
30505;SDS011;17292;51.600;4.994;2023-04-08T07:10:38;7.25;;;2.63;;
30505;SDS011;17292;51.600;4.994;2023-04-08T07:13:04;12.25;;;3.28;;
30505;SDS011;17292;51.600;4.994;2023-04-08T07:15:31;8.23;;;2.85;;
30505;SDS011;17292;51.600;4.994;2023-04-08T07:17:57;9.48;;;3.22;;
30505;SDS011;17292;51.600;4.994;2023-04-08T07:20:24;7.05;;;2.72;;
30505;SDS011;17292;51.600;4.994;2023-04-08T07:22:50;9.20;;;2.95;;
30505;SDS011;17292;51.600;4.994;2023-04-08T07:25:16;7.60;;;3.08;;
30505;SDS011;17292;51.600;4.994;2023-04-08T07:27:43;13.80;;;3.50;;
30505;SDS011;17292;51.600;4.994;2023-04-08T07:30:09;9.55;;;2.97;;
30505;SDS011;17292;51.600;4.994;2023-04-08T07:32:35;11.75;;;3.63;;
30505;SDS011;17292;51.600;4.994;2023-04-08T07:35:01;14.60;;;4.00;;
30505;SDS011;17292;51.600;4.994;2023-04-08T07:37:27;13.38;;;4.50;;
30505;SDS011;17292;51.600;4.994;2023-04-08T07:39:54;19.88;;;6.15;;
30505;SDS011;17292;51.600;4.994;2023-04-08T07:42:20;19.67;;;6.32;;
30505;SDS011;17292;51.600;4.994;2023-04-08T07:44:46;17.30;;;6.30;;
30505;SDS011;17292;51.600;4.994;2023-04-08T07:47:12;18.00;;;5.97;;
30505;SDS011;17292;51.600;4.994;2023-04-08T07:49:38;12.95;;;5.53;;
30505;SDS011;17292;51.600;4.994;2023-04-08T07:52:05;17.92;;;5.68;;
30505;SDS011;17292;51.600;4.994;2023-04-08T07:54:31;18.17;;;4.88;;
30505;SDS011;17292;51.600;4.994;2023-04-08T07:57:00;16.38;;;3.92;;
30505;SDS011;17292;51.600;4.994;2023-04-08T07:59:27;17.92;;;3.60;;
30505;SDS011;17292;51.600;4.994;2023-04-08T08:01:53;13.55;;;4.13;;
30505;SDS011;17292;51.600;4.994;2023-04-08T08:04:19;14.00;;;4.10;;
30505;SDS011;17292;51.600;4.994;2023-04-08T08:06:46;9.32;;;2.95;;
30505;SDS011;17292;51.600;4.994;2023-04-08T08:09:12;7.53;;;2.90;;
30505;SDS011;17292;51.600;4.994;2023-04-08T08:11:38;15.85;;;3.92;;
30505;SDS011;17292;51.600;4.994;2023-04-08T08:14:04;16.95;;;3.17;;
30505;SDS011;17292;51.600;4.994;2023-04-08T08:16:32;20.20;;;4.15;;
30505;SDS011;17292;51.600;4.994;2023-04-08T08:18:58;12.25;;;3.00;;
30505;SDS011;17292;51.600;4.994;2023-04-08T08:21:24;10.07;;;3.45;;
30505;SDS011;17292;51.600;4.994;2023-04-08T08:23:51;16.05;;;3.03;;
30505;SDS011;17292;51.600;4.994;2023-04-08T08:26:18;12.93;;;3.13;;
30505;SDS011;17292;51.600;4.994;2023-04-08T08:28:45;7.07;;;2.88;;
30505;SDS011;17292;51.600;4.994;2023-04-08T08:31:11;11.13;;;3.10;;
30505;SDS011;17292;51.600;4.994;2023-04-08T08:33:37;12.13;;;3.50;;
30505;SDS011;17292;51.600;4.994;2023-04-08T08:36:03;6.65;;;2.78;;
30505;SDS011;17292;51.600;4.994;2023-04-08T08:38:31;9.35;;;2.60;;
30505;SDS011;17292;51.600;4.994;2023-04-08T08:40:57;8.90;;;2.63;;
30505;SDS011;17292;51.600;4.994;2023-04-08T08:43:23;9.13;;;2.58;;
30505;SDS011;17292;51.600;4.994;2023-04-08T08:45:50;9.98;;;2.63;;
30505;SDS011;17292;51.600;4.994;2023-04-08T08:48:16;6.97;;;2.50;;
30505;SDS011;17292;51.600;4.994;2023-04-08T08:50:42;7.80;;;3.00;;
30505;SDS011;17292;51.600;4.994;2023-04-08T08:53:08;8.27;;;2.97;;
30505;SDS011;17292;51.600;4.994;2023-04-08T08:55:35;9.13;;;2.80;;
30505;SDS011;17292;51.600;4.994;2023-04-08T08:58:03;14.82;;;2.85;;
30505;SDS011;17292;51.600;4.994;2023-04-08T09:00:34;15.88;;;3.05;;
30505;SDS011;17292;51.600;4.994;2023-04-08T09:03:17;15.05;;;3.45;;
30505;SDS011;17292;51.600;4.994;2023-04-08T09:05:50;13.35;;;3.42;;
30505;SDS011;17292;51.600;4.994;2023-04-08T09:08:23;18.15;;;3.70;;
30505;SDS011;17292;51.600;4.994;2023-04-08T09:10:50;14.68;;;3.33;;
30505;SDS011;17292;51.600;4.994;2023-04-08T09:13:16;14.13;;;2.97;;
30505;SDS011;17292;51.600;4.994;2023-04-08T09:16:02;12.88;;;2.72;;
30505;SDS011;17292;51.600;4.994;2023-04-08T09:18:29;12.88;;;3.75;;
30505;SDS011;17292;51.600;4.994;2023-04-08T09:20:57;7.50;;;2.95;;
30505;SDS011;17292;51.600;4.994;2023-04-08T09:23:24;7.50;;;2.97;;
30505;SDS011;17292;51.600;4.994;2023-04-08T09:26:06;9.23;;;3.00;;
30505;SDS011;17292;51.600;4.994;2023-04-08T09:28:32;10.70;;;3.20;;
30505;SDS011;17292;51.600;4.994;2023-04-08T09:30:58;13.25;;;3.50;;
30505;SDS011;17292;51.600;4.994;2023-04-08T09:33:31;17.05;;;3.30;;
30505;SDS011;17292;51.600;4.994;2023-04-08T09:35:57;18.05;;;3.85;;
30505;SDS011;17292;51.600;4.994;2023-04-08T09:38:23;10.80;;;3.10;;
30505;SDS011;17292;51.600;4.994;2023-04-08T09:40:49;12.65;;;3.35;;
30505;SDS011;17292;51.600;4.994;2023-04-08T09:43:16;10.45;;;3.00;;
30505;SDS011;17292;51.600;4.994;2023-04-08T09:45:44;18.60;;;3.38;;
30505;SDS011;17292;51.600;4.994;2023-04-08T09:48:12;11.60;;;3.30;;
30505;SDS011;17292;51.600;4.994;2023-04-08T09:50:44;9.82;;;2.97;;
30505;SDS011;17292;51.600;4.994;2023-04-08T09:53:13;14.88;;;3.65;;
30505;SDS011;17292;51.600;4.994;2023-04-08T09:55:42;13.15;;;3.45;;
30505;SDS011;17292;51.600;4.994;2023-04-08T09:58:15;17.85;;;3.58;;
30505;SDS011;17292;51.600;4.994;2023-04-08T10:00:45;13.30;;;3.42;;
30505;SDS011;17292;51.600;4.994;2023-04-08T10:05:51;14.18;;;3.00;;
30505;SDS011;17292;51.600;4.994;2023-04-08T10:08:17;10.02;;;3.13;;
30505;SDS011;17292;51.600;4.994;2023-04-08T10:10:44;16.02;;;2.85;;
30505;SDS011;17292;51.600;4.994;2023-04-08T10:13:10;9.63;;;3.10;;
30505;SDS011;17292;51.600;4.994;2023-04-08T10:15:37;14.65;;;3.40;;
30505;SDS011;17292;51.600;4.994;2023-04-08T10:23:05;15.70;;;4.03;;
30505;SDS011;17292;51.600;4.994;2023-04-08T10:25:35;9.45;;;3.03;;
30505;SDS011;17292;51.600;4.994;2023-04-08T10:33:08;10.80;;;3.05;;
30505;SDS011;17292;51.600;4.994;2023-04-08T10:35:35;12.35;;;3.38;;
30505;SDS011;17292;51.600;4.994;2023-04-08T10:38:01;15.15;;;2.95;;
30505;SDS011;17292;51.600;4.994;2023-04-08T10:40:28;13.98;;;2.80;;
30505;SDS011;17292;51.600;4.994;2023-04-08T10:42:57;12.95;;;3.45;;
30505;SDS011;17292;51.600;4.994;2023-04-08T10:45:24;14.02;;;3.40;;
30505;SDS011;17292;51.600;4.994;2023-04-08T10:47:50;14.88;;;3.83;;
30505;SDS011;17292;51.600;4.994;2023-04-08T10:50:18;21.98;;;3.95;;
30505;SDS011;17292;51.600;4.994;2023-04-08T10:52:53;11.95;;;3.33;;
30505;SDS011;17292;51.600;4.994;2023-04-08T10:57:45;11.15;;;3.17;;
30505;SDS011;17292;51.600;4.994;2023-04-08T11:00:15;17.75;;;3.75;;
30505;SDS011;17292;51.600;4.994;2023-04-08T11:02:42;16.83;;;3.63;;
30505;SDS011;17292;51.600;4.994;2023-04-08T11:05:08;9.98;;;2.72;;
30505;SDS011;17292;51.600;4.994;2023-04-08T11:07:39;12.63;;;3.00;;
30505;SDS011;17292;51.600;4.994;2023-04-08T11:10:06;7.32;;;3.50;;
30505;SDS011;17292;51.600;4.994;2023-04-08T11:12:33;12.32;;;3.47;;
30505;SDS011;17292;51.600;4.994;2023-04-08T11:15:00;15.65;;;3.63;;
30505;SDS011;17292;51.600;4.994;2023-04-08T11:17:27;24.00;;;3.83;;
30505;SDS011;17292;51.600;4.994;2023-04-08T11:19:54;9.48;;;3.20;;
30505;SDS011;17292;51.600;4.994;2023-04-08T11:22:21;11.75;;;3.50;;
30505;SDS011;17292;51.600;4.994;2023-04-08T11:24:48;13.48;;;3.40;;
30505;SDS011;17292;51.600;4.994;2023-04-08T11:27:14;15.82;;;4.28;;
30505;SDS011;17292;51.600;4.994;2023-04-08T11:29:40;9.07;;;2.95;;
30505;SDS011;17292;51.600;4.994;2023-04-08T11:32:07;10.32;;;3.45;;
30505;SDS011;17292;51.600;4.994;2023-04-08T11:34:37;16.40;;;3.20;;
30505;SDS011;17292;51.600;4.994;2023-04-08T11:37:04;19.92;;;3.70;;
30505;SDS011;17292;51.600;4.994;2023-04-08T11:39:30;12.95;;;3.35;;
30505;SDS011;17292;51.600;4.994;2023-04-08T11:41:57;16.13;;;3.47;;
30505;SDS011;17292;51.600;4.994;2023-04-08T11:44:30;8.20;;;2.92;;
30505;SDS011;17292;51.600;4.994;2023-04-08T11:46:57;14.70;;;3.45;;
30505;SDS011;17292;51.600;4.994;2023-04-08T11:49:23;13.32;;;3.67;;
30505;SDS011;17292;51.600;4.994;2023-04-08T11:51:56;15.57;;;3.75;;
30505;SDS011;17292;51.600;4.994;2023-04-08T11:54:30;15.13;;;3.05;;
30505;SDS011;17292;51.600;4.994;2023-04-08T11:56:57;8.18;;;2.90;;
30505;SDS011;17292;51.600;4.994;2023-04-08T11:59:23;19.98;;;3.92;;
30505;SDS011;17292;51.600;4.994;2023-04-08T12:01:52;11.07;;;3.60;;
30505;SDS011;17292;51.600;4.994;2023-04-08T12:04:18;16.98;;;3.72;;
30505;SDS011;17292;51.600;4.994;2023-04-08T12:06:45;11.00;;;3.17;;
30505;SDS011;17292;51.600;4.994;2023-04-08T12:09:14;15.13;;;3.10;;
30505;SDS011;17292;51.600;4.994;2023-04-08T12:11:40;17.48;;;4.22;;
30505;SDS011;17292;51.600;4.994;2023-04-08T12:14:06;12.32;;;3.67;;
30505;SDS011;17292;51.600;4.994;2023-04-08T12:16:32;14.15;;;3.40;;
30505;SDS011;17292;51.600;4.994;2023-04-08T12:18:58;17.17;;;3.20;;
30505;SDS011;17292;51.600;4.994;2023-04-08T12:21:25;19.13;;;3.97;;
30505;SDS011;17292;51.600;4.994;2023-04-08T12:23:52;17.65;;;3.88;;
30505;SDS011;17292;51.600;4.994;2023-04-08T12:26:18;14.13;;;3.45;;
30505;SDS011;17292;51.600;4.994;2023-04-08T12:28:44;10.55;;;3.72;;
30505;SDS011;17292;51.600;4.994;2023-04-08T12:31:10;9.90;;;3.15;;
30505;SDS011;17292;51.600;4.994;2023-04-08T12:33:37;12.98;;;3.63;;
30505;SDS011;17292;51.600;4.994;2023-04-08T12:36:03;10.52;;;3.47;;
30505;SDS011;17292;51.600;4.994;2023-04-08T12:38:29;10.82;;;3.08;;
30505;SDS011;17292;51.600;4.994;2023-04-08T12:40:55;11.10;;;3.40;;
30505;SDS011;17292;51.600;4.994;2023-04-08T12:43:21;16.13;;;3.63;;
30505;SDS011;17292;51.600;4.994;2023-04-08T12:45:48;12.68;;;3.72;;
30505;SDS011;17292;51.600;4.994;2023-04-08T12:48:14;12.63;;;3.33;;
30505;SDS011;17292;51.600;4.994;2023-04-08T12:50:40;17.30;;;3.38;;
30505;SDS011;17292;51.600;4.994;2023-04-08T12:53:07;12.05;;;3.53;;
30505;SDS011;17292;51.600;4.994;2023-04-08T12:55:33;16.77;;;3.72;;
30505;SDS011;17292;51.600;4.994;2023-04-08T12:57:59;16.02;;;4.10;;
30505;SDS011;17292;51.600;4.994;2023-04-08T13:00:25;16.75;;;4.20;;
30505;SDS011;17292;51.600;4.994;2023-04-08T13:02:51;17.73;;;3.78;;
30505;SDS011;17292;51.600;4.994;2023-04-08T13:05:17;11.25;;;3.35;;
30505;SDS011;17292;51.600;4.994;2023-04-08T13:07:44;19.65;;;3.95;;
30505;SDS011;17292;51.600;4.994;2023-04-08T13:10:11;17.55;;;3.70;;
30505;SDS011;17292;51.600;4.994;2023-04-08T13:12:38;17.40;;;3.63;;
30505;SDS011;17292;51.600;4.994;2023-04-08T13:15:05;11.73;;;3.22;;
30505;SDS011;17292;51.600;4.994;2023-04-08T13:17:32;14.88;;;4.18;;
30505;SDS011;17292;51.600;4.994;2023-04-08T13:19:58;11.30;;;3.45;;
30505;SDS011;17292;51.600;4.994;2023-04-08T13:22:24;14.43;;;3.67;;
30505;SDS011;17292;51.600;4.994;2023-04-08T13:24:50;11.90;;;3.53;;
30505;SDS011;17292;51.600;4.994;2023-04-08T13:27:17;9.38;;;2.90;;
30505;SDS011;17292;51.600;4.994;2023-04-08T13:29:43;12.60;;;3.42;;
30505;SDS011;17292;51.600;4.994;2023-04-08T13:32:09;13.13;;;3.60;;
30505;SDS011;17292;51.600;4.994;2023-04-08T13:34:35;13.68;;;2.95;;
30505;SDS011;17292;51.600;4.994;2023-04-08T13:37:01;13.98;;;3.47;;
30505;SDS011;17292;51.600;4.994;2023-04-08T13:39:28;14.82;;;3.65;;
30505;SDS011;17292;51.600;4.994;2023-04-08T13:41:54;15.43;;;3.55;;
30505;SDS011;17292;51.600;4.994;2023-04-08T13:44:20;13.55;;;3.30;;
30505;SDS011;17292;51.600;4.994;2023-04-08T13:46:47;12.43;;;3.22;;
30505;SDS011;17292;51.600;4.994;2023-04-08T13:49:13;13.80;;;3.65;;
30505;SDS011;17292;51.600;4.994;2023-04-08T13:51:40;17.83;;;3.67;;
30505;SDS011;17292;51.600;4.994;2023-04-08T13:54:06;15.65;;;3.25;;
30505;SDS011;17292;51.600;4.994;2023-04-08T13:56:32;12.80;;;3.40;;
30505;SDS011;17292;51.600;4.994;2023-04-08T13:58:58;11.63;;;3.53;;
30505;SDS011;17292;51.600;4.994;2023-04-08T14:01:24;15.18;;;3.78;;
30505;SDS011;17292;51.600;4.994;2023-04-08T14:03:50;12.13;;;3.85;;
30505;SDS011;17292;51.600;4.994;2023-04-08T14:06:16;11.27;;;3.13;;
30505;SDS011;17292;51.600;4.994;2023-04-08T14:08:43;11.95;;;3.53;;
30505;SDS011;17292;51.600;4.994;2023-04-08T14:11:09;13.00;;;3.53;;
30505;SDS011;17292;51.600;4.994;2023-04-08T14:13:35;8.85;;;3.10;;
30505;SDS011;17292;51.600;4.994;2023-04-08T14:16:01;8.35;;;2.90;;
30505;SDS011;17292;51.600;4.994;2023-04-08T14:18:27;8.45;;;3.20;;
30505;SDS011;17292;51.600;4.994;2023-04-08T14:20:53;12.40;;;3.25;;
30505;SDS011;17292;51.600;4.994;2023-04-08T14:23:20;8.85;;;3.33;;
30505;SDS011;17292;51.600;4.994;2023-04-08T14:25:46;9.48;;;3.28;;
30505;SDS011;17292;51.600;4.994;2023-04-08T14:28:12;11.02;;;3.00;;
30505;SDS011;17292;51.600;4.994;2023-04-08T14:30:38;12.70;;;3.40;;
30505;SDS011;17292;51.600;4.994;2023-04-08T14:33:05;10.07;;;3.42;;
30505;SDS011;17292;51.600;4.994;2023-04-08T14:35:31;11.43;;;3.13;;
30505;SDS011;17292;51.600;4.994;2023-04-08T14:37:57;10.73;;;3.45;;
30505;SDS011;17292;51.600;4.994;2023-04-08T14:40:24;13.32;;;3.50;;
30505;SDS011;17292;51.600;4.994;2023-04-08T14:42:50;8.32;;;3.03;;
30505;SDS011;17292;51.600;4.994;2023-04-08T14:45:16;12.88;;;3.42;;
30505;SDS011;17292;51.600;4.994;2023-04-08T14:47:42;14.80;;;3.42;;
30505;SDS011;17292;51.600;4.994;2023-04-08T14:50:08;14.48;;;3.42;;
30505;SDS011;17292;51.600;4.994;2023-04-08T14:52:34;12.02;;;3.13;;
30505;SDS011;17292;51.600;4.994;2023-04-08T14:55:00;10.27;;;3.38;;
30505;SDS011;17292;51.600;4.994;2023-04-08T14:57:27;11.52;;;3.30;;
30505;SDS011;17292;51.600;4.994;2023-04-08T14:59:53;10.13;;;3.40;;